KBLF/BLF METAR and TAF weather

Enter ICAO airport designator
Station Type Date Time Source
KBLF METAR 2020/09/21 05:52 UTC NOAA

KBLF 210552Z AUTO VRB04KT 10SM CLR 07/02 A3045 RMK AO2 SLP304 T00720022 10106 20072 58002


Station Type Date Time Source
KBLF Decoded METAR 2020/09/21 05:52 UTC NOAA

BLUEFIELD MERCER COUNTY AIRPORT , WV, United States (KBLF) 37-18N 081-12W 873M
Sep 21, 2020 - 01:52 AM EDT / 2020.09.21 0552 UTC
Wind: Variable at 5 MPH (4 KT):0
Visibility: 10 mile(s):0
Sky conditions: clear
Temperature: 45.0 F (7.2 C)
Dew Point: 36.0 F (2.2 C)
Relative Humidity: 70%
Pressure (altimeter): 30.45 in. Hg (1031 hPa)
Pressure tendency: 0.01 inches (0.2 hPa) lower than three hours ago
ob: KBLF 210552Z AUTO VRB04KT 10SM CLR 07/02 A3045 RMK AO2 SLP304 T00720022 10106 20072 58002
cycle: 6

Station Type Date Time Source
KBLF TAF 2020/09/21 06:22 UTC NOAA

TAF KBLF 210520Z 2106/2206 12006KT P6SM SKC

Example: see airport list